createdAt,value
2022-09-12T00:00:29.293Z,11.60
2022-09-12T00:01:29.358Z,11.58
2022-09-12T00:02:29.293Z,11.52
2022-09-12T00:03:29.252Z,11.53
2022-09-12T00:04:29.225Z,11.47
2022-09-12T00:05:29.234Z,11.52
2022-09-12T00:06:29.248Z,11.46
2022-09-12T00:07:29.186Z,11.49
2022-09-12T00:08:29.191Z,11.46
2022-09-12T00:09:29.183Z,11.43
2022-09-12T00:10:29.182Z,11.46
2022-09-12T00:11:29.189Z,11.46
2022-09-12T00:12:29.142Z,11.41
2022-09-12T00:13:29.114Z,11.42
2022-09-12T00:14:29.126Z,11.44
2022-09-12T00:15:29.103Z,11.43
2022-09-12T00:16:29.188Z,11.42
2022-09-12T00:17:29.093Z,11.46
2022-09-12T00:18:29.071Z,11.46
2022-09-12T00:19:29.054Z,11.48
2022-09-12T00:20:29.051Z,11.46
2022-09-12T00:21:29.035Z,11.51
2022-09-12T00:22:29.037Z,11.51
2022-09-12T00:23:29.013Z,11.52
2022-09-12T00:24:29.023Z,11.53
2022-09-12T00:25:28.978Z,11.47
2022-09-12T00:26:28.981Z,11.49
2022-09-12T00:27:28.977Z,11.53
2022-09-12T00:28:28.949Z,11.58
2022-09-12T00:29:28.937Z,11.60
2022-09-12T00:30:28.929Z,11.61
2022-09-12T00:31:28.940Z,11.66
2022-09-12T00:32:28.919Z,11.69
2022-09-12T00:33:28.896Z,11.71
2022-09-12T00:34:28.889Z,11.73
2022-09-12T00:35:28.886Z,11.74
2022-09-12T00:36:28.871Z,11.80
2022-09-12T00:37:28.844Z,11.80
2022-09-12T00:38:28.855Z,11.82
2022-09-12T00:39:28.819Z,11.87
2022-09-12T00:40:28.810Z,11.85
2022-09-12T00:41:28.806Z,11.85
2022-09-12T00:42:28.780Z,11.93
2022-09-12T00:43:28.802Z,11.98
2022-09-12T00:44:28.772Z,12.00
2022-09-12T00:45:28.824Z,12.04
2022-09-12T00:46:28.752Z,12.04
2022-09-12T00:47:28.730Z,12.04
2022-09-12T00:48:28.723Z,12.05
2022-09-12T00:49:28.720Z,12.08
2022-09-12T00:50:28.713Z,12.13
2022-09-12T00:51:28.689Z,12.12
2022-09-12T00:52:28.677Z,12.08
2022-09-12T00:53:28.669Z,12.07
2022-09-12T00:54:28.680Z,12.11
2022-09-12T00:55:28.644Z,12.10
2022-09-12T00:56:28.639Z,12.07
2022-09-12T00:57:28.624Z,12.11
2022-09-12T00:58:28.620Z,12.06
2022-09-12T00:59:28.600Z,12.07
2022-09-12T01:00:28.609Z,12.11
2022-09-12T01:01:32.408Z,12.11
2022-09-12T01:02:28.567Z,12.08
2022-09-12T01:03:28.552Z,12.06
2022-09-12T01:04:28.536Z,12.04
2022-09-12T01:05:28.549Z,12.06
2022-09-12T01:06:28.513Z,12.04
2022-09-12T01:07:28.501Z,12.02
2022-09-12T01:08:28.502Z,12.06
2022-09-12T01:09:28.491Z,12.04
2022-09-12T01:10:28.493Z,12.06
2022-09-12T01:11:28.465Z,12.08
2022-09-12T01:12:28.452Z,12.02
2022-09-12T01:13:28.443Z,12.09
2022-09-12T01:14:28.434Z,12.10
2022-09-12T01:15:28.432Z,12.13
2022-09-12T01:16:28.422Z,12.15
2022-09-12T01:17:28.395Z,12.12
2022-09-12T01:18:28.383Z,12.13
2022-09-12T01:19:28.363Z,12.17
2022-09-12T01:20:28.369Z,12.20
2022-09-12T01:21:28.356Z,12.20
2022-09-12T01:22:28.343Z,12.21
2022-09-12T01:23:28.331Z,12.25
2022-09-12T01:24:28.322Z,12.24
2022-09-12T01:25:28.299Z,12.26
2022-09-12T01:26:28.306Z,12.25
2022-09-12T01:27:28.276Z,12.27
2022-09-12T01:28:28.270Z,12.25
2022-09-12T01:29:28.253Z,12.27
2022-09-12T01:30:28.240Z,12.25
2022-09-12T01:31:28.233Z,12.27
2022-09-12T01:32:28.260Z,12.26
2022-09-12T01:33:28.216Z,12.24
2022-09-12T01:34:28.213Z,12.26
2022-09-12T01:35:28.186Z,12.27
2022-09-12T01:36:28.166Z,12.26
2022-09-12T01:37:28.175Z,12.27
2022-09-12T01:38:28.157Z,12.25
2022-09-12T01:39:28.149Z,12.27
2022-09-12T01:40:28.140Z,12.25
2022-09-12T01:41:28.121Z,12.23
2022-09-12T01:42:28.127Z,12.22
2022-09-12T01:43:28.099Z,12.21
2022-09-12T01:44:28.088Z,12.20
2022-09-12T01:45:28.113Z,12.21
2022-09-12T01:46:28.065Z,12.25
2022-09-12T01:47:28.069Z,12.27
2022-09-12T01:48:28.035Z,12.27
2022-09-12T01:49:28.032Z,12.27
2022-09-12T01:50:28.015Z,12.30
2022-09-12T01:51:28.007Z,12.35
2022-09-12T01:52:27.991Z,12.32
2022-09-12T01:53:27.988Z,12.38
2022-09-12T01:54:27.969Z,12.40
2022-09-12T01:55:27.960Z,12.44
2022-09-12T01:56:27.951Z,12.41
2022-09-12T01:57:27.939Z,12.42
2022-09-12T01:58:27.947Z,12.42
2022-09-12T01:59:27.910Z,12.45
2022-09-12T02:00:27.907Z,12.44
2022-09-12T02:01:27.921Z,12.46
2022-09-12T02:02:27.919Z,12.46
2022-09-12T02:03:27.896Z,12.49
2022-09-12T02:04:31.139Z,12.50
2022-09-12T02:05:28.840Z,12.49
2022-09-12T02:06:27.843Z,12.46
2022-09-12T02:07:27.832Z,12.49
2022-09-12T02:08:27.828Z,12.49
2022-09-12T02:09:27.802Z,12.47
2022-09-12T02:10:32.259Z,12.53
2022-09-12T02:11:27.778Z,12.55
2022-09-12T02:12:27.769Z,12.52
2022-09-12T02:13:27.751Z,12.52
2022-09-12T02:14:27.767Z,12.52
2022-09-12T02:15:27.732Z,12.49
2022-09-12T02:16:27.757Z,12.49
2022-09-12T02:17:27.710Z,12.50
2022-09-12T02:18:27.700Z,12.52
2022-09-12T02:19:27.700Z,12.49
2022-09-12T02:20:47.029Z,12.49
2022-09-12T02:21:28.669Z,12.55
2022-09-12T02:22:27.662Z,12.51
2022-09-12T02:23:27.651Z,12.53
2022-09-12T02:24:27.648Z,12.51
2022-09-12T02:25:27.623Z,12.59
2022-09-12T02:26:27.603Z,12.52
2022-09-12T02:27:27.591Z,12.52
2022-09-12T02:28:27.589Z,12.55
2022-09-12T02:29:27.590Z,12.58
2022-09-12T02:30:27.641Z,12.58
2022-09-12T02:31:27.564Z,12.56
2022-09-12T02:32:27.544Z,12.56
2022-09-12T02:33:27.533Z,12.57
2022-09-12T02:34:27.564Z,12.59
2022-09-12T02:35:27.511Z,12.60
2022-09-12T02:36:27.495Z,12.59
2022-09-12T02:37:27.478Z,12.64
2022-09-12T02:38:27.473Z,12.68
2022-09-12T02:39:27.462Z,12.65
2022-09-12T02:40:27.464Z,12.68
2022-09-12T02:41:27.439Z,12.65
2022-09-12T02:42:27.423Z,12.67
2022-09-12T02:43:27.412Z,12.73
2022-09-12T02:44:27.406Z,12.71
2022-09-12T02:45:27.465Z,12.74
2022-09-12T02:46:27.374Z,12.77
2022-09-12T02:47:27.374Z,12.73
2022-09-12T02:48:27.354Z,12.73
2022-09-12T02:49:27.355Z,12.77
2022-09-12T02:50:27.347Z,12.78
2022-09-12T02:51:27.324Z,12.81
2022-09-12T02:52:27.316Z,12.82
2022-09-12T02:53:27.302Z,12.77
2022-09-12T02:54:27.292Z,12.79
2022-09-12T02:55:27.292Z,12.82
2022-09-12T02:56:27.268Z,12.82
2022-09-12T02:57:27.255Z,12.79
2022-09-12T02:58:27.247Z,12.81
2022-09-12T02:59:27.237Z,12.81
2022-09-12T03:00:27.247Z,12.84
2022-09-12T03:01:27.264Z,12.81
2022-09-12T03:02:27.234Z,12.84
2022-09-12T03:03:27.186Z,12.89
2022-09-12T03:04:27.183Z,12.88
2022-09-12T03:05:27.190Z,12.85
2022-09-12T03:06:27.158Z,12.86
2022-09-12T03:07:27.135Z,12.85
2022-09-12T03:08:27.136Z,12.90
2022-09-12T03:09:27.117Z,12.89
2022-09-12T03:10:27.109Z,12.92
2022-09-12T03:11:27.117Z,12.87
2022-09-12T03:12:27.083Z,12.90
2022-09-12T03:13:27.069Z,12.89
2022-09-12T03:14:27.063Z,12.87
2022-09-12T03:15:27.054Z,12.93
2022-09-12T03:16:27.117Z,12.96
2022-09-12T03:17:27.030Z,12.93
2022-09-12T03:18:27.023Z,12.90
2022-09-12T03:19:27.007Z,12.95
2022-09-12T03:20:26.989Z,12.92
2022-09-12T03:21:26.987Z,12.96
2022-09-12T03:22:26.970Z,12.96
2022-09-12T03:23:26.953Z,12.99
2022-09-12T03:24:26.958Z,12.96
2022-09-12T03:25:26.931Z,12.94
2022-09-12T03:26:26.946Z,13.03
2022-09-12T03:27:26.916Z,12.99
2022-09-12T03:28:26.898Z,13.00
2022-09-12T03:29:26.889Z,13.00
2022-09-12T03:30:26.927Z,12.99
2022-09-12T03:31:26.882Z,13.01
2022-09-12T03:32:26.860Z,13.07
2022-09-12T03:33:26.848Z,13.02
2022-09-12T03:34:26.848Z,13.05
2022-09-12T03:35:26.821Z,13.07
2022-09-12T03:36:26.828Z,13.05
2022-09-12T03:37:26.801Z,13.06
2022-09-12T03:38:26.788Z,13.13
2022-09-12T03:39:26.770Z,13.08
2022-09-12T03:40:26.771Z,13.13
2022-09-12T03:41:26.749Z,13.09
2022-09-12T03:42:26.758Z,13.08
2022-09-12T03:43:26.731Z,13.13
2022-09-12T03:44:26.723Z,13.14
2022-09-12T03:45:26.757Z,13.09
2022-09-12T03:46:26.698Z,13.15
2022-09-12T03:47:26.691Z,13.11
2022-09-12T03:48:26.691Z,13.12
2022-09-12T03:49:26.663Z,13.13
2022-09-12T03:50:26.656Z,13.16
2022-09-12T03:51:26.641Z,13.13
2022-09-12T03:52:26.631Z,13.18
2022-09-12T03:53:26.644Z,13.16
2022-09-12T03:54:26.601Z,13.18
2022-09-12T03:55:26.602Z,13.13
2022-09-12T03:56:26.580Z,13.19
2022-09-12T03:57:26.582Z,13.18
2022-09-12T03:58:26.572Z,13.17
2022-09-12T03:59:26.554Z,13.15
2022-09-12T04:00:26.537Z,13.18
2022-09-12T04:01:26.564Z,13.20
2022-09-12T04:02:26.639Z,13.18
2022-09-12T04:03:26.513Z,13.20
2022-09-12T04:04:26.492Z,13.18
2022-09-12T04:05:26.482Z,13.19
2022-09-12T04:06:26.472Z,13.21
2022-09-12T04:07:26.464Z,13.14
2022-09-12T04:08:26.463Z,13.15
2022-09-12T04:09:26.438Z,13.21
2022-09-12T04:10:26.422Z,13.23
2022-09-12T04:11:26.413Z,13.19
2022-09-12T04:12:26.393Z,13.20
2022-09-12T04:13:26.384Z,13.23
2022-09-12T04:14:26.401Z,13.23
2022-09-12T04:15:26.372Z,13.18
2022-09-12T04:16:26.392Z,13.23
2022-09-12T04:17:26.353Z,13.19
2022-09-12T04:18:26.327Z,13.18
2022-09-12T04:19:26.314Z,13.26
2022-09-12T04:20:26.317Z,13.25
2022-09-12T04:21:26.295Z,13.18
2022-09-12T04:22:26.285Z,13.20
2022-09-12T04:23:26.290Z,13.23
2022-09-12T04:24:26.260Z,13.25
2022-09-12T04:25:26.268Z,13.21
2022-09-12T04:26:26.241Z,13.23
2022-09-12T04:27:26.233Z,13.23
2022-09-12T04:28:26.225Z,13.23
2022-09-12T04:29:26.226Z,13.27
2022-09-12T04:30:26.277Z,13.17
2022-09-12T04:31:26.187Z,13.24
2022-09-12T04:32:26.175Z,13.22
2022-09-12T04:33:26.168Z,13.19
2022-09-12T04:34:26.149Z,13.24
2022-09-12T04:35:26.137Z,13.23
2022-09-12T04:36:26.137Z,13.20
2022-09-12T04:37:26.118Z,13.23
2022-09-12T04:38:26.102Z,13.19
2022-09-12T04:39:26.101Z,13.18
2022-09-12T04:40:26.076Z,13.20
2022-09-12T04:41:26.095Z,13.19
2022-09-12T04:42:26.055Z,13.18
2022-09-12T04:43:26.050Z,13.16
2022-09-12T04:44:26.038Z,13.13
2022-09-12T04:45:26.028Z,13.14
2022-09-12T04:46:26.026Z,13.17
2022-09-12T04:47:26.009Z,13.14
2022-09-12T04:48:26.014Z,13.05
2022-09-12T04:49:25.978Z,13.05
2022-09-12T04:50:25.966Z,13.11
2022-09-12T04:51:25.967Z,13.09
2022-09-12T04:52:25.969Z,13.02
2022-09-12T04:53:25.936Z,13.05
2022-09-12T04:54:25.916Z,13.07
2022-09-12T04:55:25.908Z,13.05
2022-09-12T04:56:25.886Z,13.02
2022-09-12T04:57:25.906Z,12.96
2022-09-12T04:58:25.880Z,12.96
2022-09-12T04:59:25.870Z,12.95
2022-09-12T05:00:25.857Z,12.99
2022-09-12T05:01:25.914Z,12.96
2022-09-12T05:02:25.883Z,12.96
2022-09-12T05:03:25.820Z,12.95
2022-09-12T05:04:25.818Z,12.95
2022-09-12T05:05:25.801Z,12.92
2022-09-12T05:06:25.788Z,12.91
2022-09-12T05:07:25.769Z,12.89
2022-09-12T05:08:25.769Z,12.91
2022-09-12T05:09:25.753Z,12.89
2022-09-12T05:10:25.741Z,12.87
2022-09-12T05:11:36.817Z,12.85
2022-09-12T05:12:26.721Z,12.84
2022-09-12T05:13:25.741Z,12.81
2022-09-12T05:14:25.692Z,12.82
2022-09-12T05:15:25.692Z,12.78
2022-09-12T05:16:25.735Z,12.84
2022-09-12T05:17:25.659Z,12.86
2022-09-12T05:18:25.654Z,12.87
2022-09-12T05:19:25.655Z,12.81
2022-09-12T05:20:25.631Z,12.82
2022-09-12T05:21:25.612Z,12.82
2022-09-12T05:22:25.605Z,12.82
2022-09-12T05:23:25.591Z,12.89
2022-09-12T05:24:25.587Z,12.81
2022-09-12T05:25:25.571Z,12.81
2022-09-12T05:26:25.560Z,12.85
2022-09-12T05:27:25.542Z,12.79
2022-09-12T05:28:25.532Z,12.78
2022-09-12T05:29:25.529Z,12.82
2022-09-12T05:30:25.552Z,12.79
2022-09-12T05:31:25.501Z,12.81
2022-09-12T05:32:25.484Z,12.85
2022-09-12T05:33:25.480Z,12.85
2022-09-12T05:34:25.473Z,12.82
2022-09-12T05:35:25.455Z,12.76
2022-09-12T05:36:25.463Z,12.84
2022-09-12T05:37:25.426Z,12.82
2022-09-12T05:38:25.426Z,12.81
2022-09-12T05:39:25.423Z,12.85
2022-09-12T05:40:25.408Z,12.81
2022-09-12T05:41:25.421Z,12.82
2022-09-12T05:42:25.374Z,12.81
2022-09-12T05:43:25.372Z,12.77
2022-09-12T05:44:25.344Z,12.81
2022-09-12T05:45:25.348Z,12.77
2022-09-12T05:46:25.345Z,12.79
2022-09-12T05:47:25.322Z,12.76
2022-09-12T05:48:25.319Z,12.84
2022-09-12T05:49:25.315Z,12.79
2022-09-12T05:50:25.283Z,12.78
2022-09-12T05:51:25.289Z,12.77
2022-09-12T05:52:25.276Z,12.85
2022-09-12T05:53:25.255Z,12.81
2022-09-12T05:54:28.337Z,12.75
2022-09-12T05:55:26.227Z,12.77
2022-09-12T05:56:25.217Z,12.72
2022-09-12T05:57:25.217Z,12.73
2022-09-12T05:58:25.195Z,12.74
2022-09-12T05:59:25.242Z,12.74
2022-09-12T06:00:25.172Z,12.71
2022-09-12T06:01:25.213Z,12.73
2022-09-12T06:02:25.229Z,12.72
2022-09-12T06:03:25.144Z,12.70
2022-09-12T06:04:25.143Z,12.72
2022-09-12T06:05:25.116Z,12.71
2022-09-12T06:06:25.115Z,12.73
2022-09-12T06:07:25.113Z,12.70
2022-09-12T06:08:25.077Z,12.70
2022-09-12T06:09:25.078Z,12.78
2022-09-12T06:10:25.058Z,12.75
2022-09-12T06:11:25.050Z,12.75
2022-09-12T06:12:25.032Z,12.76
2022-09-12T06:13:25.038Z,12.73
2022-09-12T06:14:25.006Z,12.70
2022-09-12T06:15:24.998Z,12.77
2022-09-12T06:16:25.024Z,12.74
2022-09-12T06:17:25.000Z,12.77
2022-09-12T06:18:24.986Z,12.74
2022-09-12T06:19:24.978Z,12.76
2022-09-12T06:20:24.958Z,12.76
2022-09-12T06:21:24.952Z,12.73
2022-09-12T06:22:24.918Z,12.77
2022-09-12T06:23:24.921Z,12.74
2022-09-12T06:24:24.910Z,12.74
2022-09-12T06:25:24.882Z,12.70
2022-09-12T06:26:24.878Z,12.68
2022-09-12T06:27:24.869Z,12.74
2022-09-12T06:28:24.849Z,12.64
2022-09-12T06:29:24.860Z,12.68
2022-09-12T06:30:25.582Z,12.67
2022-09-12T06:31:24.820Z,12.64
2022-09-12T06:32:24.803Z,12.65
2022-09-12T06:33:24.802Z,12.58
2022-09-12T06:34:24.797Z,12.59
2022-09-12T06:35:24.811Z,12.55
2022-09-12T06:36:24.759Z,12.55
2022-09-12T06:37:24.753Z,12.49
2022-09-12T06:38:24.737Z,12.51
2022-09-12T06:39:24.751Z,12.51
2022-09-12T06:40:24.811Z,12.46
2022-09-12T06:41:24.725Z,12.45
2022-09-12T06:42:24.843Z,12.46
2022-09-12T06:43:24.729Z,12.38
2022-09-12T06:44:24.716Z,12.38
2022-09-12T06:45:24.691Z,12.38
2022-09-12T06:46:24.703Z,12.36
2022-09-12T06:47:24.642Z,12.38
2022-09-12T06:48:24.631Z,12.40
2022-09-12T06:49:24.635Z,12.44
2022-09-12T06:50:24.641Z,12.48
2022-09-12T06:51:24.632Z,12.68
2022-09-12T06:52:25.536Z,12.92
2022-09-12T06:53:24.595Z,13.26
2022-09-12T06:54:24.581Z,13.51
2022-09-12T06:55:27.649Z,13.77
2022-09-12T06:56:24.541Z,14.02
2022-09-12T06:57:24.544Z,14.16
2022-09-12T06:58:24.514Z,14.35
2022-09-12T06:59:24.502Z,14.52
2022-09-12T07:00:24.555Z,14.72
2022-09-12T07:01:24.632Z,14.77
2022-09-12T07:02:24.500Z,14.70
2022-09-12T07:03:24.504Z,14.72
2022-09-12T07:04:24.440Z,14.71
2022-09-12T07:05:24.453Z,14.76
2022-09-12T07:06:24.465Z,14.81
2022-09-12T07:07:24.454Z,14.90
2022-09-12T07:08:24.429Z,15.10
2022-09-12T07:09:24.410Z,15.24
2022-09-12T07:10:24.396Z,15.45
2022-09-12T07:11:24.445Z,15.67
2022-09-12T07:12:24.351Z,15.79
2022-09-12T07:13:24.386Z,15.99
2022-09-12T07:14:24.315Z,16.42
2022-09-12T07:15:24.313Z,16.64
2022-09-12T07:16:24.383Z,16.95
2022-09-12T07:17:24.297Z,17.41
2022-09-12T07:18:24.286Z,17.78
2022-09-12T07:19:24.267Z,17.98
2022-09-12T07:20:24.258Z,18.37
2022-09-12T07:21:24.246Z,18.63
2022-09-12T07:22:24.256Z,18.73
2022-09-12T07:23:24.226Z,18.90
2022-09-12T07:24:24.204Z,19.09
2022-09-12T07:25:24.199Z,19.30
2022-09-12T07:26:24.187Z,19.66
2022-09-12T07:27:24.196Z,20.21
2022-09-12T07:28:24.167Z,20.95
2022-09-12T07:29:39.548Z,21.53
2022-09-12T07:30:25.138Z,21.91
2022-09-12T07:31:24.138Z,22.24
2022-09-12T07:32:24.130Z,22.69
2022-09-12T07:33:24.132Z,23.12
2022-09-12T07:34:24.099Z,23.43
2022-09-12T07:35:24.094Z,23.77
2022-09-12T07:36:24.078Z,23.72
2022-09-12T07:37:24.079Z,23.43
2022-09-12T07:38:24.061Z,22.77
2022-09-12T07:39:24.047Z,22.60
2022-09-12T07:40:24.027Z,23.02
2022-09-12T07:41:24.023Z,23.43
2022-09-12T07:42:24.015Z,23.66
2022-09-12T07:43:24.001Z,23.99
2022-09-12T07:44:24.001Z,24.11
2022-09-12T07:45:23.975Z,24.32
2022-09-12T07:46:23.961Z,24.85
2022-09-12T07:47:23.953Z,25.12
2022-09-12T07:48:23.936Z,25.36
2022-09-12T07:49:23.942Z,25.45
2022-09-12T07:50:23.920Z,25.73
2022-09-12T07:51:23.914Z,25.83
2022-09-12T07:52:23.898Z,25.97
2022-09-12T07:53:23.882Z,26.07
2022-09-12T07:54:23.906Z,26.03
2022-09-12T07:55:23.868Z,26.05
2022-09-12T07:56:28.802Z,25.95
2022-09-12T07:57:24.833Z,25.84
2022-09-12T07:58:23.825Z,26.18
2022-09-12T07:59:48.500Z,26.54
2022-09-12T08:00:24.803Z,26.71
2022-09-12T08:01:23.869Z,26.65
2022-09-12T08:02:23.830Z,26.68
2022-09-12T08:03:23.767Z,26.56
2022-09-12T08:04:23.771Z,26.43
2022-09-12T08:05:23.759Z,26.39
2022-09-12T08:06:23.750Z,26.23
2022-09-12T08:07:23.732Z,26.07
2022-09-12T08:08:23.711Z,25.89
2022-09-12T08:09:23.705Z,25.91
2022-09-12T08:10:23.711Z,26.08
2022-09-12T08:11:23.679Z,26.10
2022-09-12T08:12:23.672Z,26.36
2022-09-12T08:13:23.656Z,26.49
2022-09-12T08:14:23.657Z,26.65
2022-09-12T08:15:23.654Z,26.65
2022-09-12T08:16:23.628Z,26.92
2022-09-12T08:17:23.608Z,26.83
2022-09-12T08:18:23.604Z,25.80
2022-09-12T08:19:23.593Z,25.16
2022-09-12T08:20:28.169Z,25.13
2022-09-12T08:21:23.567Z,25.64
2022-09-12T08:22:23.548Z,25.95
2022-09-12T08:23:23.554Z,26.31
2022-09-12T08:24:23.600Z,26.26
2022-09-12T08:25:23.536Z,26.23
2022-09-12T08:26:23.525Z,26.26
2022-09-12T08:27:23.498Z,26.38
2022-09-12T08:28:23.506Z,27.02
2022-09-12T08:29:23.481Z,27.52
2022-09-12T08:30:23.479Z,27.97
2022-09-12T08:31:23.450Z,28.78
2022-09-12T08:32:23.439Z,29.24
2022-09-12T08:33:23.435Z,29.63
2022-09-12T08:34:23.449Z,30.14
2022-09-12T08:35:23.410Z,30.51
2022-09-12T08:36:23.463Z,31.30
2022-09-12T08:37:23.387Z,31.37
2022-09-12T08:38:23.370Z,31.40
2022-09-12T08:39:23.373Z,30.12
2022-09-12T08:40:23.350Z,29.00
2022-09-12T08:41:23.359Z,28.78
2022-09-12T08:42:23.330Z,28.84
2022-09-12T08:43:23.312Z,29.16
2022-09-12T08:44:23.311Z,29.44
2022-09-12T08:45:23.297Z,29.65
2022-09-12T08:46:23.327Z,30.09
2022-09-12T08:47:23.287Z,30.29
2022-09-12T08:48:23.266Z,30.07
2022-09-12T08:49:23.257Z,29.67
2022-09-12T08:50:23.244Z,29.36
2022-09-12T08:51:23.220Z,28.86
2022-09-12T08:52:23.223Z,28.37
2022-09-12T08:53:23.213Z,28.16
2022-09-12T08:54:23.185Z,28.07
2022-09-12T08:55:23.175Z,27.95
2022-09-12T08:56:23.166Z,27.68
2022-09-12T08:57:23.152Z,27.92
2022-09-12T08:58:23.177Z,28.27
2022-09-12T08:59:23.174Z,28.66
2022-09-12T09:00:23.202Z,28.64
2022-09-12T09:01:23.276Z,28.70
2022-09-12T09:02:23.164Z,28.84
2022-09-12T09:03:23.086Z,28.92
2022-09-12T09:04:25.753Z,29.20
2022-09-12T09:05:24.105Z,29.46
2022-09-12T09:06:23.069Z,30.12
2022-09-12T09:07:23.068Z,30.27
2022-09-12T09:08:23.069Z,30.38
2022-09-12T09:09:23.064Z,30.49
2022-09-12T09:10:23.055Z,30.58
2022-09-12T09:11:23.023Z,30.89
2022-09-12T09:12:23.003Z,32.22
2022-09-12T09:13:22.999Z,32.64
2022-09-12T09:14:23.014Z,32.14
2022-09-12T09:15:23.055Z,31.78
2022-09-12T09:16:22.966Z,31.07
2022-09-12T09:17:22.958Z,31.10
2022-09-12T09:18:22.944Z,31.14
2022-09-12T09:19:22.941Z,31.70
2022-09-12T09:20:22.931Z,32.24
2022-09-12T09:21:22.881Z,32.87
2022-09-12T09:22:22.906Z,33.50
2022-09-12T09:23:22.901Z,33.34
2022-09-12T09:24:22.869Z,33.88
2022-09-12T09:25:23.221Z,34.18
2022-09-12T09:26:22.845Z,35.21
2022-09-12T09:27:40.063Z,36.52
2022-09-12T09:28:23.824Z,36.74
2022-09-12T09:29:22.821Z,36.05
2022-09-12T09:30:22.835Z,36.02
2022-09-12T09:31:22.877Z,35.50
2022-09-12T09:32:22.807Z,35.18
2022-09-12T09:33:22.750Z,36.27
2022-09-12T09:34:22.767Z,37.47
2022-09-12T09:35:22.750Z,38.53
2022-09-12T09:36:22.804Z,38.96
2022-09-12T09:37:22.746Z,38.14
2022-09-12T09:38:22.713Z,37.27
2022-09-12T09:39:22.676Z,37.23
2022-09-12T09:40:22.717Z,37.37
2022-09-12T09:41:22.663Z,38.53
2022-09-12T09:42:22.639Z,39.32
2022-09-12T09:43:22.626Z,41.41
2022-09-12T09:44:22.616Z,42.93
2022-09-12T09:45:22.604Z,44.76
2022-09-12T09:46:22.651Z,46.08
2022-09-12T09:47:22.574Z,47.11
2022-09-12T09:48:22.576Z,49.15
2022-09-12T09:49:22.561Z,50.82
2022-09-12T09:50:22.556Z,50.51
2022-09-12T09:51:22.571Z,50.51
2022-09-12T09:52:22.527Z,50.27
2022-09-12T09:53:22.520Z,51.31
2022-09-12T09:54:22.498Z,52.11
2022-09-12T09:55:22.490Z,53.16
2022-09-12T09:56:23.359Z,52.37
2022-09-12T09:57:22.518Z,51.75
2022-09-12T09:58:22.483Z,52.40
2022-09-12T09:59:22.474Z,53.10
2022-09-12T10:00:22.452Z,53.50
2022-09-12T10:01:22.516Z,52.69
2022-09-12T10:02:24.317Z,53.33
2022-09-12T10:03:22.398Z,54.19
2022-09-12T10:04:22.434Z,55.62
2022-09-12T10:05:22.382Z,57.41
2022-09-12T10:06:22.385Z,58.21
2022-09-12T10:07:22.367Z,59.06
2022-09-12T10:08:22.357Z,59.61
2022-09-12T10:09:22.337Z,59.27
2022-09-12T10:10:22.333Z,59.02
2022-09-12T10:11:22.341Z,59.82
2022-09-12T10:12:22.303Z,61.71
2022-09-12T10:13:22.301Z,64.40
2022-09-12T10:14:22.286Z,66.33
2022-09-12T10:15:22.270Z,68.11
2022-09-12T10:16:22.321Z,69.46
2022-09-12T10:17:22.243Z,69.63
2022-09-12T10:18:22.243Z,69.29
2022-09-12T10:19:22.223Z,69.23
2022-09-12T10:20:22.372Z,70.21
2022-09-12T10:21:22.223Z,72.33
2022-09-12T10:22:22.193Z,73.98
2022-09-12T10:23:22.182Z,75.04
2022-09-12T10:24:22.181Z,74.38
2022-09-12T10:25:22.162Z,73.92
2022-09-12T10:26:22.164Z,74.97
2022-09-12T10:27:22.134Z,76.89
2022-09-12T10:28:22.138Z,79.06
2022-09-12T10:29:22.118Z,80.65
2022-09-12T10:30:22.106Z,82.96
2022-09-12T10:31:22.105Z,86.20
2022-09-12T10:32:22.084Z,89.21
2022-09-12T10:33:22.060Z,90.46
2022-09-12T10:34:22.102Z,91.35
2022-09-12T10:35:22.081Z,91.65
2022-09-12T10:36:22.054Z,90.66
2022-09-12T10:37:22.073Z,91.15
2022-09-12T10:38:22.031Z,90.17
2022-09-12T10:39:22.020Z,88.84
2022-09-12T10:40:22.024Z,89.03
2022-09-12T10:41:21.998Z,90.37
2022-09-12T10:42:23.453Z,94.00
2022-09-12T10:43:21.987Z,93.71
2022-09-12T10:44:21.948Z,93.77
2022-09-12T10:45:21.938Z,93.82
2022-09-12T10:46:21.964Z,94.45
2022-09-12T10:47:21.930Z,95.15
2022-09-12T10:48:21.908Z,94.13
2022-09-12T10:49:21.885Z,92.96
2022-09-12T10:50:23.082Z,91.05
2022-09-12T10:51:21.871Z,91.45
2022-09-12T10:52:21.884Z,91.35
2022-09-12T10:53:21.841Z,91.45
2022-09-12T10:54:21.918Z,85.67
2022-09-12T10:55:21.819Z,79.96
2022-09-12T10:56:21.819Z,80.81
2022-09-12T10:57:21.800Z,85.58
2022-09-12T10:58:21.803Z,90.46
2022-09-12T10:59:21.801Z,95.18
2022-09-12T11:00:21.770Z,96.57
2022-09-12T11:01:21.798Z,99.19
2022-09-12T11:02:21.810Z,101.96
2022-09-12T11:03:21.751Z,102.76
2022-09-12T11:04:21.721Z,103.14
2022-09-12T11:05:22.872Z,103.84
2022-09-12T11:06:21.707Z,105.61
2022-09-12T11:07:21.691Z,108.05
2022-09-12T11:08:21.684Z,108.82
2022-09-12T11:09:21.682Z,108.68
2022-09-12T11:10:21.663Z,110.54
2022-09-12T11:11:21.641Z,112.68
2022-09-12T11:12:21.642Z,114.45
2022-09-12T11:13:21.626Z,115.07
2022-09-12T11:14:21.626Z,115.00
2022-09-12T11:15:21.592Z,114.14
2022-09-12T11:16:21.628Z,113.44
2022-09-12T11:17:21.574Z,115.47
2022-09-12T11:18:21.568Z,117.57
2022-09-12T11:19:21.552Z,120.69
2022-09-12T11:20:21.570Z,122.72
2022-09-12T11:21:21.537Z,124.63
2022-09-12T11:22:21.533Z,125.37
2022-09-12T11:23:21.526Z,127.17
2022-09-12T11:24:21.520Z,129.23
2022-09-12T11:25:21.508Z,130.53
2022-09-12T11:26:21.487Z,132.07
2022-09-12T11:27:21.475Z,133.75
2022-09-12T11:28:21.454Z,134.18
2022-09-12T11:29:21.468Z,133.86
2022-09-12T11:30:21.436Z,135.58
2022-09-12T11:31:21.436Z,136.24
2022-09-12T11:32:21.408Z,136.57
2022-09-12T11:33:21.399Z,136.91
2022-09-12T11:34:21.391Z,138.26
2022-09-12T11:35:21.377Z,141.16
2022-09-12T11:36:21.379Z,142.00
2022-09-12T11:37:21.355Z,143.09
2022-09-12T11:38:21.341Z,142.72
2022-09-12T11:39:21.329Z,141.16
2022-09-12T11:40:21.346Z,138.60
2022-09-12T11:41:21.330Z,136.13
2022-09-12T11:42:21.290Z,132.59
2022-09-12T11:43:21.294Z,132.90
2022-09-12T11:44:21.280Z,136.35
2022-09-12T11:45:21.262Z,138.49
2022-09-12T11:46:21.293Z,142.12
2022-09-12T11:47:21.251Z,143.82
2022-09-12T11:48:21.232Z,145.94
2022-09-12T11:49:21.221Z,146.07
2022-09-12T11:50:21.211Z,146.71
2022-09-12T11:51:21.197Z,145.44
2022-09-12T11:52:21.202Z,145.31
2022-09-12T11:53:21.174Z,142.60
2022-09-12T11:54:21.165Z,143.94
2022-09-12T11:55:21.151Z,144.07
2022-09-12T11:56:21.152Z,137.02
2022-09-12T11:57:21.144Z,126.60
2022-09-12T11:58:21.121Z,117.65
2022-09-12T11:59:21.111Z,112.99
2022-09-12T12:00:21.100Z,116.19
2022-09-12T12:01:21.073Z,117.32
2022-09-12T12:02:21.151Z,118.40
2022-09-12T12:03:21.085Z,116.51
2022-09-12T12:04:21.050Z,114.76
2022-09-12T12:05:21.038Z,116.67
2022-09-12T12:06:21.026Z,119.49
2022-09-12T12:07:21.017Z,122.99
2022-09-12T12:08:21.018Z,125.56
2022-09-12T12:09:20.989Z,128.34
2022-09-12T12:10:20.979Z,133.54
2022-09-12T12:11:20.968Z,137.69
2022-09-12T12:12:20.951Z,137.69
2022-09-12T12:13:20.970Z,132.07
2022-09-12T12:14:20.937Z,134.82
2022-09-12T12:15:20.930Z,139.06
2022-09-12T12:16:20.957Z,143.09
2022-09-12T12:17:20.891Z,145.31
2022-09-12T12:18:20.888Z,149.31
2022-09-12T12:19:20.893Z,149.58
2022-09-12T12:20:20.859Z,151.46
2022-09-12T12:21:20.850Z,148.91
2022-09-12T12:22:20.836Z,152.15
2022-09-12T12:23:20.829Z,156.10
2022-09-12T12:24:20.833Z,158.46
2022-09-12T12:25:21.975Z,161.19
2022-09-12T12:26:20.798Z,162.60
2022-09-12T12:27:20.778Z,165.15
2022-09-12T12:28:20.763Z,166.79
2022-09-12T12:29:20.772Z,171.38
2022-09-12T12:30:20.747Z,172.97
2022-09-12T12:31:20.764Z,173.50
2022-09-12T12:32:20.730Z,174.04
2022-09-12T12:33:20.711Z,177.16
2022-09-12T12:34:20.721Z,179.43
2022-09-12T12:35:20.692Z,181.36
2022-09-12T12:36:20.677Z,181.17
2022-09-12T12:37:20.671Z,183.54
2022-09-12T12:38:20.659Z,185.57
2022-09-12T12:39:20.652Z,182.35
2022-09-12T12:40:20.728Z,172.26
2022-09-12T12:41:20.624Z,166.62
2022-09-12T12:42:22.439Z,163.54
2022-09-12T12:43:20.607Z,166.46
2022-09-12T12:44:20.587Z,172.43
2022-09-12T12:45:20.611Z,177.91
2022-09-12T12:46:20.655Z,183.74
2022-09-12T12:47:20.569Z,186.18
2022-09-12T12:48:20.535Z,176.23
2022-09-12T12:49:20.526Z,167.29